Lake of the Forest, Kansas
Current Conditions -  °F | °C
As of 3:53 AM on Saturday 29 Nov 2014 (Local Time) from KIXD Reporting Station
Clear Clear  
Wind Chill:   Ceiling: Unl
Heat Index:   Visibility: 10mi
Dew Point:   Wind: 7mph
Humidity: 90%   Direction: 180°S
Pressure: 29.69"   Gusts: NA
Location:  39.0619°N, 94.8881°W
Report Text: KIXD 290953Z AUTO 18006KT 10SM CLR 08/07 A2969 RMK AO2 SLP051 T00830067
Loading
Personal Weather Stations






























Interactive Weather Map New forecast layout! Learn more

10-Day Weather Forecast

Advertisements
Track Severe Weather on mobile